createdAt,value
2017-10-30T00:00:25.557Z,0
2017-10-30T00:01:06.017Z,0
2017-10-30T00:01:46.474Z,0
2017-10-30T00:02:26.929Z,0
2017-10-30T00:03:07.383Z,0
2017-10-30T00:03:48.046Z,0
2017-10-30T00:04:28.502Z,0
2017-10-30T00:05:08.949Z,0
2017-10-30T00:05:49.417Z,0
2017-10-30T00:06:29.882Z,0
2017-10-30T00:07:10.631Z,0
2017-10-30T00:07:51.033Z,0
2017-10-30T00:08:31.478Z,0
2017-10-30T00:09:11.944Z,0
2017-10-30T00:09:52.408Z,0
2017-10-30T00:10:32.863Z,0
2017-10-30T00:11:13.352Z,0
2017-10-30T00:11:53.799Z,0
2017-10-30T00:12:34.250Z,0
2017-10-30T00:13:14.706Z,0
2017-10-30T00:13:55.160Z,0
2017-10-30T00:14:35.852Z,0
2017-10-30T00:15:16.205Z,0
2017-10-30T00:15:56.660Z,0
2017-10-30T00:16:37.112Z,0
2017-10-30T00:17:17.557Z,0
2017-10-30T00:17:58.038Z,0
2017-10-30T00:18:38.775Z,0
2017-10-30T00:19:19.244Z,0
2017-10-30T00:19:59.691Z,0
2017-10-30T00:20:40.164Z,0
2017-10-30T00:21:20.610Z,0
2017-10-30T00:22:01.314Z,0
2017-10-30T00:22:41.719Z,0
2017-10-30T00:23:22.156Z,0
2017-10-30T00:24:02.610Z,0
2017-10-30T00:24:43.074Z,0
2017-10-30T00:25:23.539Z,0
2017-10-30T00:26:03.993Z,0
2017-10-30T00:26:44.450Z,0
2017-10-30T00:27:24.899Z,0
2017-10-30T00:28:05.350Z,0
2017-10-30T00:28:45.789Z,0
2017-10-30T00:29:26.244Z,0
2017-10-30T00:30:06.699Z,0
2017-10-30T00:30:47.146Z,0
2017-10-30T00:31:27.598Z,0
2017-10-30T00:32:08.059Z,0
2017-10-30T00:32:48.510Z,0
2017-10-30T00:33:28.960Z,0
2017-10-30T00:34:09.422Z,0
2017-10-30T00:34:49.879Z,0
2017-10-30T00:35:30.327Z,0
2017-10-30T00:36:10.789Z,0
2017-10-30T00:36:51.256Z,0
2017-10-30T00:37:31.716Z,0
2017-10-30T00:38:12.165Z,0
2017-10-30T00:38:52.620Z,0
2017-10-30T00:39:33.074Z,0
2017-10-30T00:40:13.529Z,0
2017-10-30T00:40:53.993Z,0
2017-10-30T00:41:34.450Z,0
2017-10-30T00:42:14.909Z,0
2017-10-30T00:42:55.366Z,0
2017-10-30T00:43:35.812Z,0
2017-10-30T00:44:16.269Z,0
2017-10-30T00:44:56.729Z,0
2017-10-30T00:45:37.176Z,0
2017-10-30T00:46:17.627Z,0
2017-10-30T00:46:58.088Z,0
2017-10-30T00:47:38.541Z,0
2017-10-30T00:48:19.000Z,0
2017-10-30T00:48:59.453Z,0
2017-10-30T00:49:39.898Z,0
2017-10-30T00:50:20.344Z,0
2017-10-30T00:51:00.797Z,0
2017-10-30T00:51:41.248Z,0
2017-10-30T00:52:21.696Z,0
2017-10-30T00:53:02.148Z,0
2017-10-30T00:53:42.613Z,0
2017-10-30T00:54:23.066Z,0
2017-10-30T00:55:03.510Z,0
2017-10-30T00:55:43.964Z,0
2017-10-30T00:56:24.426Z,0
2017-10-30T00:57:04.900Z,0
2017-10-30T00:57:45.351Z,0
2017-10-30T00:58:25.801Z,0
2017-10-30T00:59:06.260Z,0
2017-10-30T00:59:46.699Z,0
2017-10-30T01:00:27.149Z,0
2017-10-30T01:01:07.600Z,0
2017-10-30T01:01:48.052Z,0
2017-10-30T01:02:28.500Z,0
2017-10-30T01:03:08.966Z,0
2017-10-30T01:03:49.415Z,0
2017-10-30T01:04:29.868Z,0
2017-10-30T01:05:10.320Z,0
2017-10-30T01:05:50.784Z,0
2017-10-30T01:06:31.261Z,0
2017-10-30T01:07:11.706Z,0
2017-10-30T01:07:52.164Z,0
2017-10-30T01:08:32.623Z,0
2017-10-30T01:09:13.081Z,0
2017-10-30T01:09:53.532Z,0
2017-10-30T01:10:33.988Z,0
2017-10-30T01:11:14.445Z,0
2017-10-30T01:11:54.914Z,0
2017-10-30T01:12:35.356Z,0
2017-10-30T01:13:15.813Z,0
2017-10-30T01:13:56.250Z,0
2017-10-30T01:14:36.712Z,0
2017-10-30T01:15:17.165Z,0
2017-10-30T01:15:57.620Z,0
2017-10-30T01:16:38.077Z,0
2017-10-30T01:17:18.533Z,0
2017-10-30T01:17:58.973Z,0
2017-10-30T01:18:39.422Z,0
2017-10-30T01:19:19.869Z,0
2017-10-30T01:20:00.322Z,0
2017-10-30T01:20:40.789Z,0
2017-10-30T01:21:21.236Z,0
2017-10-30T01:22:01.698Z,0
2017-10-30T01:22:42.150Z,0
2017-10-30T01:23:22.607Z,0
2017-10-30T01:24:03.049Z,0
2017-10-30T01:24:43.508Z,0
2017-10-30T01:25:23.962Z,0
2017-10-30T01:26:04.412Z,0
2017-10-30T01:26:44.852Z,0
2017-10-30T01:27:25.299Z,0
2017-10-30T01:28:05.749Z,0
2017-10-30T01:28:46.192Z,0
2017-10-30T01:29:26.645Z,0
2017-10-30T01:30:07.100Z,0
2017-10-30T01:30:47.540Z,0
2017-10-30T01:31:27.994Z,0
2017-10-30T01:32:08.454Z,0
2017-10-30T01:32:48.913Z,0
2017-10-30T01:33:29.383Z,0
2017-10-30T01:34:09.837Z,0
2017-10-30T01:34:50.311Z,0
2017-10-30T01:35:30.760Z,0
2017-10-30T01:36:11.209Z,0
2017-10-30T01:36:51.681Z,0
2017-10-30T01:37:32.143Z,0
2017-10-30T01:38:12.590Z,0
2017-10-30T01:38:53.052Z,0
2017-10-30T01:39:33.504Z,0
2017-10-30T01:40:13.963Z,0
2017-10-30T01:40:54.413Z,0
2017-10-30T01:41:34.861Z,0
2017-10-30T01:42:15.321Z,0
2017-10-30T01:42:55.791Z,0
2017-10-30T01:43:36.247Z,0
2017-10-30T01:44:16.700Z,0
2017-10-30T01:44:57.155Z,0
2017-10-30T01:45:37.617Z,0
2017-10-30T01:46:18.060Z,0
2017-10-30T01:46:58.517Z,0
2017-10-30T01:47:38.979Z,0
2017-10-30T01:48:19.443Z,0
2017-10-30T01:48:59.906Z,0
2017-10-30T01:49:40.364Z,0
2017-10-30T01:50:20.813Z,0
2017-10-30T01:51:01.272Z,0
2017-10-30T01:51:41.736Z,0
2017-10-30T01:52:22.185Z,0
2017-10-30T01:53:02.632Z,0
2017-10-30T01:53:43.090Z,0
2017-10-30T01:54:23.528Z,0
2017-10-30T01:55:03.979Z,0
2017-10-30T01:55:44.422Z,0
2017-10-30T01:56:24.872Z,0
2017-10-30T01:57:05.323Z,0
2017-10-30T01:57:45.779Z,0
2017-10-30T01:58:26.248Z,0
2017-10-30T01:59:06.709Z,0
2017-10-30T01:59:47.201Z,0
2017-10-30T02:00:27.636Z,0
2017-10-30T02:01:08.092Z,0
2017-10-30T02:01:48.548Z,0
2017-10-30T02:02:29.007Z,0
2017-10-30T02:03:09.463Z,0
2017-10-30T02:03:49.913Z,0
2017-10-30T02:04:30.382Z,0
2017-10-30T02:05:10.842Z,0
2017-10-30T02:05:51.289Z,0
2017-10-30T02:06:31.738Z,0
2017-10-30T02:07:12.203Z,0
2017-10-30T02:07:52.651Z,0
2017-10-30T02:08:33.150Z,0
2017-10-30T02:09:13.582Z,0
2017-10-30T02:09:54.026Z,0
2017-10-30T02:10:34.472Z,0
2017-10-30T02:11:14.939Z,0
2017-10-30T02:11:55.380Z,0
2017-10-30T02:12:35.831Z,0
2017-10-30T02:13:16.296Z,0
2017-10-30T02:13:56.755Z,0
2017-10-30T02:14:37.207Z,0
2017-10-30T02:15:17.636Z,0
2017-10-30T02:15:58.083Z,0
2017-10-30T02:16:38.538Z,0
2017-10-30T02:17:19.003Z,0
2017-10-30T02:17:59.459Z,0
2017-10-30T02:18:39.911Z,0
2017-10-30T02:19:20.362Z,0
2017-10-30T02:20:00.813Z,0
2017-10-30T02:20:41.264Z,0
2017-10-30T02:21:21.726Z,0
2017-10-30T02:22:02.179Z,0
2017-10-30T02:22:42.633Z,0
2017-10-30T02:23:23.086Z,0
2017-10-30T02:24:03.537Z,0
2017-10-30T02:24:43.993Z,0
2017-10-30T02:25:24.455Z,0
2017-10-30T02:26:04.912Z,0
2017-10-30T02:26:45.357Z,0
2017-10-30T02:27:25.806Z,0
2017-10-30T02:28:06.280Z,0
2017-10-30T02:28:46.721Z,0
2017-10-30T02:29:27.177Z,0
2017-10-30T02:30:07.640Z,0
2017-10-30T02:30:48.091Z,0
2017-10-30T02:31:28.551Z,0
2017-10-30T02:32:09.006Z,0
2017-10-30T02:32:49.458Z,0
2017-10-30T02:33:29.912Z,0
2017-10-30T02:34:10.371Z,0
2017-10-30T02:34:50.819Z,0
2017-10-30T02:35:31.273Z,0
2017-10-30T02:36:11.751Z,0
2017-10-30T02:36:52.271Z,0
2017-10-30T02:37:32.654Z,0
2017-10-30T02:38:13.109Z,0
2017-10-30T02:38:53.579Z,0
2017-10-30T02:39:34.031Z,0
2017-10-30T02:40:14.491Z,0
2017-10-30T02:40:54.952Z,0
2017-10-30T02:41:35.408Z,0
2017-10-30T02:42:15.865Z,0
2017-10-30T02:42:56.307Z,0
2017-10-30T02:43:36.757Z,0
2017-10-30T02:44:17.214Z,0
2017-10-30T02:44:57.653Z,0
2017-10-30T02:45:38.097Z,0
2017-10-30T02:46:18.572Z,0
2017-10-30T02:46:59.015Z,0
2017-10-30T02:47:39.461Z,0
2017-10-30T02:48:19.910Z,0
2017-10-30T02:49:00.354Z,0
2017-10-30T02:49:40.816Z,0
2017-10-30T02:50:21.271Z,0
2017-10-30T02:51:01.717Z,0
2017-10-30T02:51:42.171Z,0
2017-10-30T02:52:22.624Z,0
2017-10-30T02:53:03.081Z,0
2017-10-30T02:53:43.529Z,0
2017-10-30T02:54:23.990Z,0
2017-10-30T02:55:04.462Z,0
2017-10-30T02:55:44.913Z,0
2017-10-30T02:56:25.363Z,0
2017-10-30T02:57:05.824Z,0
2017-10-30T02:57:46.279Z,0
2017-10-30T02:58:26.726Z,0
2017-10-30T02:59:07.181Z,0
2017-10-30T02:59:47.624Z,0
2017-10-30T03:00:28.076Z,0
2017-10-30T03:01:08.517Z,0
2017-10-30T03:01:48.976Z,0
2017-10-30T03:02:29.432Z,0
2017-10-30T03:03:09.882Z,0
2017-10-30T03:03:50.338Z,0
2017-10-30T03:04:30.795Z,0
2017-10-30T03:05:11.258Z,0
2017-10-30T03:05:51.703Z,0
2017-10-30T03:06:32.183Z,0
2017-10-30T03:07:12.636Z,0
2017-10-30T03:07:53.087Z,0
2017-10-30T03:08:33.543Z,0
2017-10-30T03:09:14.001Z,0
2017-10-30T03:09:54.449Z,0
2017-10-30T03:10:34.902Z,0
2017-10-30T03:11:15.367Z,0
2017-10-30T03:11:55.820Z,0
2017-10-30T03:12:36.265Z,0
2017-10-30T03:13:16.707Z,0
2017-10-30T03:13:57.164Z,0
2017-10-30T03:14:37.603Z,0
2017-10-30T03:15:18.061Z,0
2017-10-30T03:15:58.514Z,0
2017-10-30T03:16:38.982Z,0
2017-10-30T03:17:19.433Z,0
2017-10-30T03:17:59.881Z,0
2017-10-30T03:18:40.325Z,0
2017-10-30T03:19:20.788Z,0
2017-10-30T03:20:01.245Z,0
2017-10-30T03:20:41.695Z,0
2017-10-30T03:21:22.157Z,0
2017-10-30T03:22:02.609Z,0
2017-10-30T03:22:43.055Z,0
2017-10-30T03:23:23.527Z,0
2017-10-30T03:24:03.966Z,0
2017-10-30T03:24:44.421Z,0
2017-10-30T03:25:24.885Z,0
2017-10-30T03:26:05.334Z,0
2017-10-30T03:26:45.789Z,0
2017-10-30T03:27:26.240Z,0
2017-10-30T03:28:06.716Z,0
2017-10-30T03:28:47.166Z,0
2017-10-30T03:29:27.615Z,0
2017-10-30T03:30:08.070Z,0
2017-10-30T03:30:48.519Z,0
2017-10-30T03:31:28.966Z,0
2017-10-30T03:32:09.413Z,0
2017-10-30T03:32:49.861Z,0
2017-10-30T03:33:30.313Z,0
2017-10-30T03:34:10.775Z,0
2017-10-30T03:34:51.220Z,0
2017-10-30T03:35:31.674Z,0
2017-10-30T03:36:12.150Z,0
2017-10-30T03:36:52.590Z,0
2017-10-30T03:37:33.048Z,0
2017-10-30T03:38:13.508Z,0
2017-10-30T03:38:53.954Z,0
2017-10-30T03:39:34.397Z,0
2017-10-30T03:40:14.858Z,0
2017-10-30T03:40:55.349Z,0
2017-10-30T03:41:35.818Z,0
2017-10-30T03:42:16.268Z,0
2017-10-30T03:42:56.722Z,0
2017-10-30T03:43:37.197Z,0
2017-10-30T03:44:17.642Z,0
2017-10-30T03:44:58.096Z,0
2017-10-30T03:45:38.561Z,0
2017-10-30T03:46:19.007Z,0
2017-10-30T03:46:59.477Z,0
2017-10-30T03:47:39.924Z,0
2017-10-30T03:48:20.371Z,0
2017-10-30T03:49:00.818Z,0
2017-10-30T03:49:41.269Z,0
2017-10-30T03:50:21.733Z,0
2017-10-30T03:51:02.187Z,0
2017-10-30T03:51:42.644Z,0
2017-10-30T03:52:23.101Z,0
2017-10-30T03:53:03.576Z,0
2017-10-30T03:53:44.001Z,0
2017-10-30T03:54:24.456Z,0
2017-10-30T03:55:04.916Z,0
2017-10-30T03:55:45.369Z,0
2017-10-30T03:56:25.808Z,0
2017-10-30T03:57:06.275Z,0
2017-10-30T03:57:46.722Z,0
2017-10-30T03:58:27.174Z,0
2017-10-30T03:59:07.618Z,0
2017-10-30T03:59:48.066Z,0
2017-10-30T04:00:28.516Z,0
2017-10-30T04:01:08.978Z,0
2017-10-30T04:01:49.429Z,0
2017-10-30T04:02:29.881Z,0
2017-10-30T04:03:10.336Z,0
2017-10-30T04:03:50.794Z,0
2017-10-30T04:04:31.245Z,0
2017-10-30T04:05:11.732Z,0
2017-10-30T04:05:52.160Z,0
2017-10-30T04:06:32.609Z,0
2017-10-30T04:07:13.071Z,0
2017-10-30T04:07:53.522Z,0
2017-10-30T04:08:33.963Z,0
2017-10-30T04:09:14.414Z,0
2017-10-30T04:09:54.858Z,0
2017-10-30T04:10:35.305Z,0
2017-10-30T04:11:15.767Z,0
2017-10-30T04:11:56.219Z,0
2017-10-30T04:12:36.669Z,0
2017-10-30T04:13:17.122Z,0
2017-10-30T04:13:57.576Z,0
2017-10-30T04:14:38.033Z,0
2017-10-30T04:15:18.489Z,0
2017-10-30T04:15:58.955Z,0
2017-10-30T04:16:39.421Z,0
2017-10-30T04:17:19.884Z,0
2017-10-30T04:18:00.330Z,0
2017-10-30T04:18:40.793Z,0
2017-10-30T04:19:21.248Z,0
2017-10-30T04:20:01.703Z,0
2017-10-30T04:20:42.166Z,0
2017-10-30T04:21:22.617Z,0
2017-10-30T04:22:03.076Z,0
2017-10-30T04:22:43.552Z,0
2017-10-30T04:23:23.987Z,0
2017-10-30T04:24:04.446Z,0
2017-10-30T04:24:44.895Z,0
2017-10-30T04:25:25.344Z,0
2017-10-30T04:26:05.796Z,0
2017-10-30T04:26:46.262Z,0
2017-10-30T04:27:26.705Z,0
2017-10-30T04:28:07.155Z,0
2017-10-30T04:28:47.617Z,0
2017-10-30T04:29:28.069Z,0
2017-10-30T04:30:08.515Z,0
2017-10-30T04:30:48.968Z,0
2017-10-30T04:31:29.424Z,0
2017-10-30T04:32:09.879Z,0
2017-10-30T04:32:50.327Z,0
2017-10-30T04:33:30.787Z,0
2017-10-30T04:34:11.241Z,0
2017-10-30T04:34:51.688Z,0
2017-10-30T04:35:32.143Z,0
2017-10-30T04:36:12.601Z,0
2017-10-30T04:36:53.059Z,0
2017-10-30T04:37:33.538Z,0
2017-10-30T04:38:13.973Z,0
2017-10-30T04:38:54.427Z,0
2017-10-30T04:39:34.868Z,0
2017-10-30T04:40:15.323Z,0
2017-10-30T04:40:55.775Z,0
2017-10-30T04:41:36.230Z,0
2017-10-30T04:42:16.682Z,0
2017-10-30T04:42:57.143Z,0
2017-10-30T04:43:37.599Z,0
2017-10-30T04:44:18.052Z,0
2017-10-30T04:44:58.507Z,0
2017-10-30T04:45:38.963Z,0
2017-10-30T04:46:19.418Z,0
2017-10-30T04:46:59.879Z,0
2017-10-30T04:47:40.339Z,0
2017-10-30T04:48:20.804Z,0
2017-10-30T04:49:01.255Z,0
2017-10-30T04:49:41.709Z,0
2017-10-30T04:50:22.178Z,0
2017-10-30T04:51:02.624Z,0
2017-10-30T04:51:43.078Z,0
2017-10-30T04:52:23.555Z,0
2017-10-30T04:53:03.984Z,0
2017-10-30T04:53:44.446Z,0
2017-10-30T04:54:24.898Z,0
2017-10-30T04:55:05.347Z,0
2017-10-30T04:55:45.798Z,0
2017-10-30T04:56:26.258Z,0
2017-10-30T04:57:06.719Z,0
2017-10-30T04:57:47.176Z,0
2017-10-30T04:58:27.636Z,0
2017-10-30T04:59:08.117Z,0
2017-10-30T04:59:48.569Z,0
2017-10-30T05:00:29.030Z,0
2017-10-30T05:01:09.488Z,0
2017-10-30T05:01:49.947Z,0
2017-10-30T05:02:30.434Z,0
2017-10-30T05:03:10.889Z,0
2017-10-30T05:03:51.321Z,0
2017-10-30T05:04:31.778Z,0
2017-10-30T05:05:12.240Z,0
2017-10-30T05:05:52.693Z,0
2017-10-30T05:06:33.163Z,0
2017-10-30T05:07:13.615Z,0
2017-10-30T05:07:54.065Z,0
2017-10-30T05:08:34.524Z,0
2017-10-30T05:09:14.978Z,0
2017-10-30T05:09:55.441Z,0
2017-10-30T05:10:35.910Z,0
2017-10-30T05:11:16.374Z,0
2017-10-30T05:11:56.821Z,0
2017-10-30T05:12:37.298Z,0
2017-10-30T05:13:17.750Z,0
2017-10-30T05:13:58.206Z,0
2017-10-30T05:14:38.671Z,0
2017-10-30T05:15:19.155Z,0
2017-10-30T05:15:59.620Z,0
2017-10-30T05:16:40.071Z,0
2017-10-30T05:17:20.535Z,0
2017-10-30T05:18:00.989Z,0
2017-10-30T05:18:41.441Z,0
2017-10-30T05:19:21.911Z,0
2017-10-30T05:20:02.361Z,0
2017-10-30T05:20:42.828Z,0
2017-10-30T05:21:23.281Z,0
2017-10-30T05:22:03.721Z,0
2017-10-30T05:22:44.178Z,0
2017-10-30T05:23:24.635Z,0
2017-10-30T05:24:05.095Z,0
2017-10-30T05:24:45.545Z,0
2017-10-30T05:25:26.003Z,0
2017-10-30T05:26:06.482Z,0
2017-10-30T05:26:46.904Z,0
2017-10-30T05:27:27.358Z,0
2017-10-30T05:28:07.816Z,0
2017-10-30T05:28:48.264Z,0
2017-10-30T05:29:28.719Z,0
2017-10-30T05:30:09.178Z,0
2017-10-30T05:30:49.646Z,0
2017-10-30T05:31:30.094Z,0
2017-10-30T05:32:10.544Z,0
2017-10-30T05:32:51.000Z,0
2017-10-30T05:33:31.462Z,0
2017-10-30T05:34:11.940Z,0
2017-10-30T05:34:52.394Z,0
2017-10-30T05:35:32.828Z,0
2017-10-30T05:36:13.280Z,0
2017-10-30T05:36:53.730Z,0
2017-10-30T05:37:34.186Z,0
2017-10-30T05:38:14.694Z,0
2017-10-30T05:38:55.152Z,0
2017-10-30T05:39:35.596Z,0
2017-10-30T05:40:16.048Z,0
2017-10-30T05:40:56.488Z,0
2017-10-30T05:41:36.961Z,0
2017-10-30T05:42:17.403Z,0
2017-10-30T05:42:57.849Z,0
2017-10-30T05:43:38.529Z,0
2017-10-30T05:44:18.963Z,0
2017-10-30T05:44:59.424Z,0
2017-10-30T05:45:39.877Z,0
2017-10-30T05:46:20.390Z,0
2017-10-30T05:47:00.853Z,0
2017-10-30T05:47:41.312Z,0
2017-10-30T05:48:21.785Z,0
2017-10-30T05:49:02.252Z,0
2017-10-30T05:49:42.700Z,0
2017-10-30T05:50:23.147Z,0
2017-10-30T05:51:03.605Z,0
2017-10-30T05:51:44.046Z,0
2017-10-30T05:52:24.495Z,0
2017-10-30T05:53:04.957Z,0
2017-10-30T05:53:45.419Z,0
2017-10-30T05:54:25.871Z,0
2017-10-30T05:55:06.331Z,0
2017-10-30T05:55:46.792Z,0
2017-10-30T05:56:27.239Z,0
2017-10-30T05:57:07.690Z,0
2017-10-30T05:57:48.141Z,0
2017-10-30T05:58:28.580Z,0
2017-10-30T05:59:09.028Z,0
2017-10-30T05:59:49.487Z,0
2017-10-30T06:00:29.937Z,0
2017-10-30T06:01:10.387Z,0
2017-10-30T06:01:50.835Z,0
2017-10-30T06:02:31.279Z,0
2017-10-30T06:03:11.730Z,0
2017-10-30T06:03:52.183Z,0
2017-10-30T06:04:32.698Z,0
2017-10-30T06:05:13.161Z,0
2017-10-30T06:05:53.627Z,0
2017-10-30T06:06:34.068Z,0
2017-10-30T06:07:14.558Z,0
2017-10-30T06:07:55.009Z,0
2017-10-30T06:08:35.492Z,0
2017-10-30T06:09:15.954Z,0
2017-10-30T06:09:56.379Z,0
2017-10-30T06:10:36.833Z,0
2017-10-30T06:11:17.282Z,0
2017-10-30T06:11:57.738Z,0
2017-10-30T06:12:38.184Z,0
2017-10-30T06:13:18.640Z,0
2017-10-30T06:13:59.103Z,0
2017-10-30T06:14:39.922Z,0
2017-10-30T06:15:20.375Z,0
2017-10-30T06:16:00.824Z,0
2017-10-30T06:16:41.277Z,0
2017-10-30T06:17:21.720Z,0
2017-10-30T06:18:02.174Z,0
2017-10-30T06:18:42.635Z,0
2017-10-30T06:19:23.088Z,0
2017-10-30T06:20:03.544Z,0
2017-10-30T06:20:44.001Z,0
2017-10-30T06:21:24.454Z,0
2017-10-30T06:22:04.911Z,0
2017-10-30T06:22:45.350Z,0
2017-10-30T06:23:25.793Z,0
2017-10-30T06:24:06.235Z,0
2017-10-30T06:24:46.685Z,0
2017-10-30T06:25:27.126Z,0
2017-10-30T06:26:07.572Z,0
2017-10-30T06:26:48.018Z,0
2017-10-30T06:27:28.467Z,0
2017-10-30T06:28:08.927Z,0
2017-10-30T06:28:49.381Z,0
2017-10-30T06:29:29.822Z,0
2017-10-30T06:30:10.295Z,0
2017-10-30T06:30:50.752Z,0
2017-10-30T06:31:31.208Z,0
2017-10-30T06:32:11.675Z,0
2017-10-30T06:32:52.137Z,0
2017-10-30T06:33:32.588Z,0
2017-10-30T06:34:13.032Z,0
2017-10-30T06:34:53.484Z,0
2017-10-30T06:35:33.943Z,0
2017-10-30T06:36:14.393Z,0
2017-10-30T06:36:54.858Z,0
2017-10-30T06:37:35.317Z,0
2017-10-30T06:38:15.777Z,0
2017-10-30T06:38:56.237Z,0
2017-10-30T06:39:36.688Z,0
2017-10-30T06:40:17.154Z,0
2017-10-30T06:40:57.616Z,0
2017-10-30T06:41:38.073Z,0
2017-10-30T06:42:18.532Z,0
2017-10-30T06:42:58.981Z,0
2017-10-30T06:43:39.435Z,0
2017-10-30T06:44:19.887Z,0
2017-10-30T06:45:00.338Z,0
2017-10-30T06:45:40.806Z,0
2017-10-30T06:46:21.259Z,0
2017-10-30T06:47:01.727Z,0
2017-10-30T06:47:42.175Z,0
2017-10-30T06:48:22.630Z,0
2017-10-30T06:49:03.090Z,0
2017-10-30T06:49:43.548Z,0
2017-10-30T06:50:24.117Z,0
2017-10-30T06:51:04.574Z,0
2017-10-30T06:51:45.034Z,0
2017-10-30T06:52:25.488Z,0
2017-10-30T06:53:05.929Z,0
2017-10-30T06:53:46.377Z,0
2017-10-30T06:54:26.831Z,0
2017-10-30T06:55:07.284Z,0
2017-10-30T06:55:47.765Z,0
2017-10-30T06:56:28.216Z,0
2017-10-30T06:57:08.662Z,0
2017-10-30T06:57:49.118Z,0
2017-10-30T06:58:29.580Z,0
2017-10-30T06:59:10.027Z,0
2017-10-30T06:59:50.479Z,0
2017-10-30T07:00:30.942Z,0
2017-10-30T07:01:11.400Z,0
2017-10-30T07:01:51.840Z,0
2017-10-30T07:02:32.305Z,0
2017-10-30T07:03:12.788Z,0
2017-10-30T07:03:53.213Z,0
2017-10-30T07:04:33.666Z,0
2017-10-30T07:05:14.122Z,0
2017-10-30T07:05:54.579Z,0
2017-10-30T07:06:35.020Z,0
2017-10-30T07:07:15.483Z,0
2017-10-30T07:07:55.941Z,0
2017-10-30T07:08:36.391Z,0
2017-10-30T07:09:16.844Z,0
2017-10-30T07:09:57.308Z,0
2017-10-30T07:10:37.773Z,0
2017-10-30T07:11:18.237Z,0
2017-10-30T07:11:58.684Z,0
2017-10-30T07:12:39.138Z,0
2017-10-30T07:13:19.595Z,0
2017-10-30T07:14:00.044Z,0
2017-10-30T07:14:40.508Z,0
2017-10-30T07:15:20.961Z,0
2017-10-30T07:16:01.418Z,0
2017-10-30T07:16:41.866Z,0
2017-10-30T07:17:22.317Z,0
2017-10-30T07:18:02.770Z,0
2017-10-30T07:18:43.218Z,0
2017-10-30T07:19:23.678Z,0
2017-10-30T07:20:04.117Z,0
2017-10-30T07:20:44.567Z,0
2017-10-30T07:21:25.022Z,0
2017-10-30T07:22:05.478Z,0
2017-10-30T07:22:45.949Z,0
2017-10-30T07:23:26.403Z,0
2017-10-30T07:24:06.857Z,0
2017-10-30T07:24:47.310Z,0
2017-10-30T07:25:27.765Z,0
2017-10-30T07:26:08.225Z,0
2017-10-30T07:26:48.682Z,0
2017-10-30T07:27:29.135Z,0
2017-10-30T07:28:09.608Z,0
2017-10-30T07:28:50.069Z,0
2017-10-30T07:29:30.521Z,0
2017-10-30T07:30:10.976Z,0
2017-10-30T07:30:51.446Z,0
2017-10-30T07:31:31.887Z,0
2017-10-30T07:32:12.332Z,0
2017-10-30T07:32:52.784Z,0
2017-10-30T07:33:33.245Z,0
2017-10-30T07:34:13.701Z,0
2017-10-30T07:34:54.154Z,0
2017-10-30T07:35:34.615Z,0
2017-10-30T07:36:15.061Z,0
2017-10-30T07:36:55.520Z,0
2017-10-30T07:37:35.988Z,0
2017-10-30T07:38:16.442Z,0
2017-10-30T07:38:56.901Z,0
2017-10-30T07:39:37.348Z,0
2017-10-30T07:40:17.795Z,0
2017-10-30T07:40:58.248Z,0
2017-10-30T07:41:38.711Z,0
2017-10-30T07:42:19.168Z,0
2017-10-30T07:42:59.627Z,0
2017-10-30T07:43:40.083Z,0
2017-10-30T07:44:20.523Z,0
2017-10-30T07:45:00.977Z,0
2017-10-30T07:45:41.433Z,0
2017-10-30T07:46:21.887Z,0
2017-10-30T07:47:02.338Z,0
2017-10-30T07:47:42.800Z,0
2017-10-30T07:48:23.245Z,0
2017-10-30T07:49:03.719Z,0
2017-10-30T07:49:44.193Z,0
2017-10-30T07:50:24.654Z,0
2017-10-30T07:51:05.106Z,0
2017-10-30T07:51:45.558Z,0
2017-10-30T07:52:26.020Z,0
2017-10-30T07:53:06.477Z,0
2017-10-30T07:53:46.944Z,0
2017-10-30T07:54:27.398Z,0
2017-10-30T07:55:07.858Z,0
2017-10-30T07:55:48.320Z,0
2017-10-30T07:56:28.775Z,0
2017-10-30T07:57:09.229Z,0
2017-10-30T07:57:49.678Z,0
2017-10-30T07:58:30.141Z,0
2017-10-30T07:59:10.592Z,0
2017-10-30T07:59:51.070Z,0
2017-10-30T08:00:31.535Z,0
2017-10-30T08:01:11.981Z,0
2017-10-30T08:01:52.430Z,0
2017-10-30T08:02:32.891Z,0
2017-10-30T08:03:13.353Z,0
2017-10-30T08:03:53.805Z,0
2017-10-30T08:04:34.257Z,0
2017-10-30T08:05:14.703Z,0
2017-10-30T08:05:55.148Z,0
2017-10-30T08:06:35.595Z,0
2017-10-30T08:07:16.045Z,0
2017-10-30T08:07:56.503Z,0
2017-10-30T08:08:36.952Z,0
2017-10-30T08:09:17.409Z,0
2017-10-30T08:09:57.883Z,0
2017-10-30T08:10:38.317Z,0
2017-10-30T08:11:18.779Z,0
2017-10-30T08:11:59.264Z,0
2017-10-30T08:12:39.709Z,0
2017-10-30T08:13:20.153Z,0
2017-10-30T08:14:00.619Z,0
2017-10-30T08:14:41.087Z,0
2017-10-30T08:15:21.548Z,0
2017-10-30T08:16:02.003Z,0
2017-10-30T08:16:42.458Z,0
2017-10-30T08:17:22.942Z,0
2017-10-30T08:18:03.396Z,0
2017-10-30T08:18:43.850Z,0
2017-10-30T08:19:24.316Z,0
2017-10-30T08:20:04.732Z,0
2017-10-30T08:20:45.184Z,0
2017-10-30T08:21:25.643Z,0
2017-10-30T08:22:06.100Z,0
2017-10-30T08:22:46.556Z,0
2017-10-30T08:23:27.005Z,0
2017-10-30T08:24:07.463Z,0
2017-10-30T08:24:47.914Z,0
2017-10-30T08:25:28.370Z,0
2017-10-30T08:26:08.826Z,0
2017-10-30T08:26:49.302Z,0
2017-10-30T08:27:29.764Z,0
2017-10-30T08:28:10.226Z,0
2017-10-30T08:28:50.684Z,0
2017-10-30T08:29:31.157Z,0
2017-10-30T08:30:11.603Z,0
2017-10-30T08:30:52.053Z,0
2017-10-30T08:31:32.509Z,0
2017-10-30T08:32:12.969Z,0
2017-10-30T08:32:53.421Z,0
2017-10-30T08:33:33.895Z,0
2017-10-30T08:34:14.352Z,0
2017-10-30T08:34:54.819Z,0
2017-10-30T08:35:35.258Z,0
2017-10-30T08:36:15.712Z,0
2017-10-30T08:36:56.184Z,0
2017-10-30T08:37:36.635Z,0
2017-10-30T08:38:17.084Z,0
2017-10-30T08:38:57.537Z,0
2017-10-30T08:41:25.536Z,0
2017-10-30T08:42:05.983Z,0
2017-10-30T08:42:46.498Z,0
2017-10-30T08:43:26.939Z,0
2017-10-30T08:44:07.406Z,5
2017-10-30T08:44:47.832Z,0
2017-10-30T08:45:28.294Z,0
2017-10-30T08:46:08.745Z,0
2017-10-30T08:46:49.193Z,0
2017-10-30T08:47:29.650Z,0
2017-10-30T08:48:10.096Z,0
2017-10-30T08:48:50.549Z,0
2017-10-30T08:49:30.993Z,0
2017-10-30T08:50:11.442Z,0
2017-10-30T08:50:51.891Z,0
2017-10-30T08:51:32.326Z,0
2017-10-30T08:52:12.784Z,0
2017-10-30T08:52:53.228Z,0
2017-10-30T08:53:33.669Z,0
2017-10-30T08:54:14.128Z,0
2017-10-30T08:54:54.584Z,0
2017-10-30T08:55:35.019Z,0
2017-10-30T08:56:15.475Z,0
2017-10-30T08:56:55.926Z,0
2017-10-30T08:57:36.381Z,0
2017-10-30T08:58:16.842Z,0
2017-10-30T08:58:57.297Z,0
2017-10-30T08:59:37.752Z,35
2017-10-30T09:00:18.201Z,35
2017-10-30T09:00:58.643Z,30
2017-10-30T09:01:39.097Z,30
2017-10-30T09:02:19.558Z,30
2017-10-30T09:03:00.023Z,30
2017-10-30T09:03:40.478Z,30
2017-10-30T09:04:20.930Z,30
2017-10-30T09:05:01.387Z,30
2017-10-30T09:05:41.834Z,30
2017-10-30T09:06:22.296Z,30
2017-10-30T09:07:02.747Z,30
2017-10-30T09:07:43.212Z,30
2017-10-30T09:08:23.668Z,30
2017-10-30T09:09:04.116Z,25
2017-10-30T09:09:44.576Z,25
2017-10-30T09:10:25.028Z,20
2017-10-30T09:11:05.479Z,20
2017-10-30T09:11:45.950Z,20
2017-10-30T09:12:26.416Z,20
2017-10-30T09:13:06.875Z,15
2017-10-30T09:13:47.331Z,15
2017-10-30T09:14:27.790Z,15
2017-10-30T09:15:08.247Z,15
2017-10-30T09:15:48.694Z,15
2017-10-30T09:16:29.142Z,15
2017-10-30T09:17:09.600Z,15
2017-10-30T09:17:50.058Z,15
2017-10-30T09:18:30.508Z,15
2017-10-30T09:19:10.955Z,15
2017-10-30T09:19:51.412Z,15
2017-10-30T09:20:31.873Z,15
2017-10-30T09:21:12.327Z,15
2017-10-30T09:21:52.775Z,10
2017-10-30T09:22:33.235Z,10
2017-10-30T09:23:13.688Z,10
2017-10-30T09:23:54.134Z,10
2017-10-30T09:24:34.590Z,15
2017-10-30T09:25:15.038Z,15
2017-10-30T09:25:55.478Z,15
2017-10-30T09:26:35.935Z,15
2017-10-30T09:27:16.564Z,10
2017-10-30T09:27:57.025Z,10
2017-10-30T09:28:37.477Z,10
2017-10-30T09:29:17.941Z,10
2017-10-30T09:29:58.376Z,10
2017-10-30T09:30:38.845Z,10
2017-10-30T09:31:19.292Z,10
2017-10-30T09:31:59.744Z,10
2017-10-30T09:32:40.183Z,10
2017-10-30T09:33:20.637Z,10
2017-10-30T09:34:01.102Z,15
2017-10-30T09:34:41.555Z,15
2017-10-30T09:35:22.014Z,15
2017-10-30T09:36:02.479Z,15
2017-10-30T09:36:42.942Z,15
2017-10-30T09:37:23.390Z,15
2017-10-30T09:38:03.854Z,20
2017-10-30T09:38:44.313Z,20
2017-10-30T09:39:24.762Z,20
2017-10-30T09:40:05.218Z,25
2017-10-30T09:40:45.674Z,25
2017-10-30T09:41:26.135Z,25
2017-10-30T09:42:06.577Z,25
2017-10-30T09:42:47.028Z,30
2017-10-30T09:43:27.485Z,35
2017-10-30T09:44:07.933Z,40
2017-10-30T09:44:48.380Z,40
2017-10-30T09:45:28.837Z,35
2017-10-30T09:46:09.288Z,40
2017-10-30T09:46:49.743Z,50
2017-10-30T09:47:30.202Z,50
2017-10-30T09:48:10.651Z,45
2017-10-30T09:48:51.104Z,40
2017-10-30T09:49:31.561Z,40
2017-10-30T09:50:12.014Z,40
2017-10-30T09:50:52.472Z,40
2017-10-30T09:51:32.918Z,45
2017-10-30T09:52:13.465Z,45
2017-10-30T09:52:53.920Z,45
2017-10-30T09:53:34.398Z,50
2017-10-30T09:54:14.847Z,55
2017-10-30T09:54:55.308Z,60
2017-10-30T09:55:35.776Z,60
2017-10-30T09:56:16.223Z,70
2017-10-30T09:56:56.681Z,70
2017-10-30T09:57:37.141Z,80
2017-10-30T09:58:17.594Z,95